logo
Search for airport 
image banner adimage banner adimage banner ad
image banner ad

OS64 - An Nasiriyah Air Base

Located in Jayrud, Syrian Arab Republic

ICAO - , IATA -

Data provided by Airmate  

General information

Coordinates: N33°55'8" E36°51'60"
Elevation is 2740 feet MSL.
Magnetic variation is 5° East
View others Airports in Damascus Governorate

Operational data

Special qualification required
Current time UTC:
Current local time:
Weather at : OSDI - Damascus / International ( 65 km )
METAR: OSDI 011800Z 24014KT 9999 SCT030CB BKN100 22/09 Q1014
TAF: TAF OSDI 0118/0224 27015G25KT 9999 SCT030 BKN100 TEMPO 0120/0210 22010KT 9999 FEW030
View NOTAMs / SUP AIP / TFR affecting this airport [VIEW]
Communications frequencies: [VIEW]

Runways:

Airport contact information

Address: Jayrud Syrian Arab Republic

Satellite view of OS64